Time;durP1;ratioP1;P1;durP2;ratioP2;P2;SDS_P1;SDS_P2;PMS_P1;PMS_P2;Temp;Humidity;BMP_temperature;BMP_pressure;BME280_temperature;BME280_humidity;BME280_pressure;Samples;Min_cycle;Max_cycle;Signal;HPM_P1;HPM_P2
2021/01/20 05:11:45;297351.00;0.99;513.37;0.00;0.00;0.62;;;;;10.80;1.00;;;;;;2286866;60;1380;-84
2021/01/20 05:14:14;266326.00;0.89;460.03;0.00;0.00;0.62;;;;;10.50;1.00;;;;;;2276711;60;1036;-84
2021/01/20 05:16:41;385093.00;1.28;664.18;0.00;0.00;0.62;;;;;10.60;1.00;;;;;;2276442;60;1797;-83
2021/01/20 05:19:08;87359.00;0.29;151.75;0.00;0.00;0.62;;;;;10.30;1.00;;;;;;2268694;61;1915;-82
2021/01/20 05:21:35;219006.00;0.73;378.63;11626.00;0.04;20.77;;;;;10.00;1.00;;;;;;2268691;61;1451;-83
2021/01/20 05:24:26;867693.00;2.89;1499.45;285752.00;0.95;493.43;;;;;9.70;1.00;;;;;;2268760;61;1067;-82
2021/01/20 05:50:07;32792.00;0.11;57.42;0.00;0.00;0.62;;;;;9.50;1.00;;;;;;2282587;61;1447;-82
2021/01/20 05:52:34;152846.00;0.51;264.71;0.00;0.00;0.62;;;;;9.60;1.00;;;;;;2272364;61;992;-84
2021/01/20 05:55:11;16712.00;0.06;29.58;0.00;0.00;0.62;;;;;9.80;1.00;;;;;;2272403;61;1083;-83
2021/01/20 06:48:06;350944.00;1.17;605.48;88033.00;0.29;152.91;;;;;8.70;1.00;;;;;;2283067;61;1146;-85
2021/01/20 07:17:51;359489.00;1.20;620.17;53715.00;0.18;93.61;;;;;10.10;1.00;;;;;;2287013;60;1413;-82
2021/01/20 07:32:45;195398.00;0.65;338.00;0.00;0.00;0.62;;;;;10.00;1.00;;;;;;2282655;60;1392;-84
2021/01/20 07:52:29;417175.00;1.39;719.33;93566.00;0.31;162.46;;;;;9.80;1.00;;;;;;2294712;60;1412;-85
2021/01/20 08:12:17;219966.00;0.73;380.29;94220.00;0.31;163.59;;;;;10.00;1.00;;;;;;2296033;60;1302;-86
2021/01/20 08:14:45;169139.00;0.56;292.78;81846.00;0.27;142.23;;;;;10.00;1.00;;;;;;2294160;60;547;-88
2021/01/20 08:17:13;170477.00;0.57;295.09;80465.00;0.27;139.84;;;;;9.80;1.00;;;;;;2284536;60;993;-85
2021/01/20 08:22:13;118144912.00;393.82;66800700.00;90137.00;0.30;156.54;;;;;9.80;1.00;;;;;;2364254;55;3795;31
2021/01/20 08:29:48;253792.00;0.85;438.47;100465.00;0.33;174.37;;;;;9.90;1.00;;;;;;2295381;60;1359;-83
2021/01/20 08:32:15;461918.00;1.54;796.28;91131.00;0.30;158.26;;;;;10.20;1.00;;;;;;2277101;60;1061;-83
2021/01/20 14:03:09;448349.00;1.49;772.94;93502.00;0.31;162.35;;;;;13.90;1.00;;;;;;2287543;61;946;-90
2021/01/20 14:42:57;662333.00;2.21;1141.98;45018.00;0.15;78.57;;;;;12.30;1.00;;;;;;2290436;60;1314;-86
2021/01/20 14:45:24;493280.00;1.64;850.25;0.00;0.00;0.62;;;;;12.10;1.00;;;;;;2288184;60;1090;-86
2021/01/20 14:47:50;608049.00;2.03;1048.12;0.00;0.00;0.62;;;;;12.40;1.00;;;;;;2288172;60;1094;-85
2021/01/20 14:50:17;601846.00;2.01;1037.41;0.00;0.00;0.62;;;;;12.70;1.00;;;;;;2288166;60;1149;-86
2021/01/20 14:52:43;485662.00;1.62;837.14;0.00;0.00;0.62;;;;;13.10;1.00;;;;;;2288093;60;1447;-86
2021/01/20 14:55:11;829733.00;2.77;1433.03;78617.00;0.26;136.65;;;;;12.20;1.00;;;;;;2288145;60;1160;-85
2021/01/20 14:57:37;437648.00;1.46;754.54;0.00;0.00;0.62;;;;;11.80;1.00;;;;;;2288153;60;1061;-86
2021/01/20 15:00:06;539899.00;1.80;930.55;0.00;0.00;0.62;;;;;12.30;1.00;;;;;;2288116;60;1994;-86
2021/01/20 15:02:32;485131.00;1.62;836.23;0.00;0.00;0.62;;;;;12.10;1.00;;;;;;2288080;60;1308;-86
2021/01/20 15:04:59;515814.00;1.72;889.06;0.00;0.00;0.62;;;;;12.20;1.00;;;;;;2288105;60;1122;-86
2021/01/20 15:07:25;594825.00;1.98;1025.29;0.00;0.00;0.62;;;;;12.20;1.00;;;;;;2288146;60;1054;-86
2021/01/20 15:09:52;741391.00;2.47;1279.09;31821.00;0.11;55.73;;;;;12.30;1.00;;;;;;2288124;60;1149;-86
2021/01/20 15:14:46;529623.00;1.77;912.84;0.00;0.00;0.62;;;;;12.10;1.00;;;;;;2286396;60;1410;-86
2021/01/20 15:17:13;518449.00;1.73;893.59;0.00;0.00;0.62;;;;;12.50;1.00;;;;;;2284706;60;1106;-86
2021/01/20 15:19:40;646972.00;2.16;1115.40;0.00;0.00;0.62;;;;;12.80;1.00;;;;;;2284654;60;2010;-85
2021/01/20 15:22:06;701449.00;2.34;1209.75;0.00;0.00;0.62;;;;;12.50;1.00;;;;;;2284729;60;1570;-86
2021/01/20 15:24:32;594499.00;1.98;1024.72;0.00;0.00;0.62;;;;;12.50;1.00;;;;;;2284772;60;1014;-86
2021/01/20 15:26:59;758962.00;2.53;1309.64;13978.00;0.05;24.84;;;;;12.20;1.00;;;;;;2284781;60;1144;-86
2021/01/20 15:29:25;556053.00;1.85;958.39;0.00;0.00;0.62;;;;;12.30;1.00;;;;;;2284695;60;1105;-86
2021/01/20 15:31:52;580824.00;1.94;1001.12;0.00;0.00;0.62;;;;;12.70;1.00;;;;;;2284709;60;1374;-86
2021/01/20 15:34:20;457519.00;1.53;788.72;0.00;0.00;0.62;;;;;12.80;1.00;;;;;;2284628;60;1183;-86
2021/01/20 15:36:46;359256.00;1.20;619.77;0.00;0.00;0.62;;;;;13.20;1.00;;;;;;2284750;60;979;-86
2021/01/20 15:39:13;476610.00;1.59;821.56;0.00;0.00;0.62;;;;;13.50;1.00;;;;;;2284700;60;996;-86
2021/01/20 15:41:40;512295.00;1.71;882.99;0.00;0.00;0.62;;;;;13.60;1.00;;;;;;2284658;60;2088;-86
2021/01/20 15:44:07;566971.00;1.89;977.22;0.00;0.00;0.62;;;;;13.50;1.00;;;;;;2284503;60;1098;-86
2021/01/20 15:46:33;530322.00;1.77;914.05;0.00;0.00;0.62;;;;;13.70;1.00;;;;;;2284707;60;1135;-86
2021/01/20 15:51:28;118215304.00;394.05;66920292.00;0.00;0.00;0.62;;;;;13.60;1.00;;;;;;2286149;60;1429;-86
2021/01/20 15:53:55;498792.00;1.66;859.74;0.00;0.00;0.62;;;;;13.30;1.00;;;;;;2284716;60;1153;-87
2021/01/20 15:56:22;355105.00;1.18;612.64;0.00;0.00;0.62;;;;;13.20;1.00;;;;;;2284617;60;1145;-86
2021/01/20 15:58:49;786145.00;2.62;1356.97;6324.00;0.02;11.58;;;;;13.30;1.00;;;;;;2284725;60;928;-86
2021/01/20 16:01:15;343727.00;1.15;593.08;0.00;0.00;0.62;;;;;13.50;1.00;;;;;;2284644;60;2017;-85
2021/01/20 16:03:42;569111.00;1.90;980.91;16030.00;0.05;28.39;;;;;13.40;1.00;;;;;;2284678;60;1047;-85
2021/01/20 16:06:10;463319.00;1.54;798.69;0.00;0.00;0.62;;;;;13.40;1.00;;;;;;2284710;60;934;-86
2021/01/20 16:08:37;386820.00;1.29;667.15;0.00;0.00;0.62;;;;;13.60;1.00;;;;;;2284610;60;1075;-86
2021/01/20 16:11:04;477171.00;1.59;822.53;0.00;0.00;0.62;;;;;13.60;1.00;;;;;;2284577;60;1293;-89
2021/01/20 16:13:30;348485.00;1.16;601.26;0.00;0.00;0.62;;;;;13.70;1.00;;;;;;2284603;60;1093;-87
2021/01/20 16:15:57;416308.00;1.39;717.84;0.00;0.00;0.62;;;;;13.80;1.00;;;;;;2284580;60;1084;-88
2021/01/20 16:18:23;630883.00;2.10;1087.58;0.00;0.00;0.62;;;;;13.90;1.00;;;;;;2284659;60;1000;-87
2021/01/20 16:20:49;473181.00;1.58;815.66;22144.00;0.07;38.98;;;;;13.90;1.00;;;;;;2284574;60;1996;-86
2021/01/20 16:23:16;503816.00;1.68;868.39;0.00;0.00;0.62;;;;;13.90;1.00;;;;;;2284612;60;1022;-87
2021/01/20 16:25:43;710079.00;2.37;1224.72;0.00;0.00;0.62;;;;;13.90;1.00;;;;;;2284646;60;1145;-88
2021/01/20 16:28:09;592449.00;1.97;1021.18;0.00;0.00;0.62;;;;;13.70;1.00;;;;;;2284584;60;1016;-87
2021/01/20 16:30:36;531769.00;1.77;916.54;0.00;0.00;0.62;;;;;13.70;1.00;;;;;;2284588;60;1361;-87
2021/01/20 16:33:03;580596.00;1.94;1000.73;0.00;0.00;0.62;;;;;13.90;1.00;;;;;;2284607;60;1107;-87
2021/01/20 16:35:29;429327.00;1.43;740.23;0.00;0.00;0.62;;;;;14.00;1.00;;;;;;2284607;60;1042;-87
2021/01/20 16:37:56;800719.00;2.67;1382.38;0.00;0.00;0.62;;;;;14.00;1.00;;;;;;2284537;60;1137;-87
2021/01/20 16:40:22;699524.00;2.33;1206.41;0.00;0.00;0.62;;;;;13.80;1.00;;;;;;2284397;60;1994;-87
2021/01/20 16:42:49;665715.00;2.22;1147.83;0.00;0.00;0.62;;;;;13.40;1.00;;;;;;2284588;60;992;-87
2021/01/20 16:45:16;382729.00;1.28;660.12;0.00;0.00;0.62;;;;;13.40;1.00;;;;;;2284534;60;1227;-87
2021/01/20 16:47:43;566020.00;1.89;975.58;0.00;0.00;0.62;;;;;13.50;1.00;;;;;;2284563;60;1026;-88
2021/01/20 16:50:10;743538.00;2.48;1282.82;25740.00;0.09;45.21;;;;;13.60;1.00;;;;;;2286462;60;1082;-86
2021/01/20 16:52:36;645189.00;2.15;1112.31;0.00;0.00;0.62;;;;;13.70;1.00;;;;;;2288499;60;1392;-87
2021/01/20 16:55:04;702075.00;2.34;1210.84;0.00;0.00;0.62;;;;;13.50;1.00;;;;;;2288509;60;1086;-87
2021/01/20 16:57:30;628906.00;2.10;1084.16;16310.00;0.05;28.88;;;;;13.00;1.00;;;;;;2288516;60;1594;-87
2021/01/20 16:59:57;499141.00;1.66;860.34;23495.00;0.08;41.32;;;;;13.10;1.00;;;;;;2288454;60;2012;-87
2021/01/20 17:02:24;656740.00;2.19;1132.30;0.00;0.00;0.62;;;;;13.10;1.00;;;;;;2288397;60;1416;-87
2021/01/20 17:04:50;753474.00;2.51;1300.10;0.00;0.00;0.62;;;;;12.70;1.00;;;;;;2288417;60;1075;-87
2021/01/20 17:07:17;1011602.00;3.37;1753.03;27533.00;0.09;48.31;;;;;12.20;1.00;;;;;;2288526;60;1093;-86
2021/01/20 17:09:43;862697.00;2.88;1490.70;0.00;0.00;0.62;;;;;12.20;1.00;;;;;;2288558;60;1040;-87
2021/01/20 17:12:10;796219.00;2.65;1374.53;0.00;0.00;0.62;;;;;11.80;1.00;;;;;;2288492;60;1421;-87
2021/01/20 17:14:37;691032.00;2.30;1191.69;0.00;0.00;0.62;;;;;11.80;1.00;;;;;;2288496;60;1631;-86
2021/01/20 17:17:04;672709.00;2.24;1159.94;15795.00;0.05;27.99;;;;;11.40;1.00;;;;;;2288466;60;1783;-87
2021/01/20 17:19:30;960387.00;3.20;1662.44;0.00;0.00;0.62;;;;;11.70;1.00;;;;;;2288475;60;2008;-87
2021/01/20 17:21:57;666235.00;2.22;1148.73;24678.00;0.08;43.37;;;;;11.80;1.00;;;;;;2288462;60;1446;-86
2021/01/20 17:24:24;933256.00;3.11;1614.61;18143.00;0.06;32.05;;;;;11.50;1.00;;;;;;2288514;60;1105;-87
2021/01/20 17:26:50;810406.00;2.70;1399.28;0.00;0.00;0.62;;;;;11.40;1.00;;;;;;2288492;60;1121;-86
2021/01/20 17:29:17;946144.00;3.15;1637.31;114082.00;0.38;197.87;;;;;11.40;1.00;;;;;;2288466;60;1166;-86
2021/01/20 17:31:43;736653.00;2.46;1270.86;0.00;0.00;0.62;;;;;11.40;1.00;;;;;;2288420;60;1403;-87
2021/01/20 17:34:12;873447.00;2.91;1509.53;59046.00;0.20;102.83;;;;;11.50;1.00;;;;;;2288364;60;1050;-86
2021/01/20 17:36:38;859812.00;2.87;1485.64;0.00;0.00;0.62;;;;;11.60;1.00;;;;;;2288382;60;1062;-86
2021/01/20 17:39:05;934333.00;3.11;1616.50;0.00;0.00;0.62;;;;;11.90;1.00;;;;;;2288457;60;1021;-86
2021/01/20 17:41:32;700958.00;2.34;1208.90;11639.00;0.04;20.79;;;;;12.00;1.00;;;;;;2288344;60;2002;-87
2021/01/20 17:43:58;664845.00;2.22;1146.33;0.00;0.00;0.62;;;;;11.70;1.00;;;;;;2288423;60;1038;-86
2021/01/20 17:46:25;708161.00;2.36;1221.39;0.00;0.00;0.62;;;;;11.80;1.00;;;;;;2288388;60;1171;-87
2021/01/20 17:48:51;117131224.00;390.44;65094452.00;0.00;0.00;0.62;;;;;11.50;1.00;;;;;;2288422;60;1054;-86
2021/01/20 17:51:18;1146106.00;3.82;1993.08;27619.00;0.09;48.46;;;;;11.20;1.00;;;;;;2288369;60;1375;-86
2021/01/20 17:53:45;766903.00;2.56;1323.46;8260.00;0.03;14.93;;;;;10.60;1.00;;;;;;2288372;60;1109;-87
2021/01/20 17:56:11;768228.00;2.56;1325.77;0.00;0.00;0.62;;;;;10.70;1.00;;;;;;2288358;60;1140;-86
2021/01/20 17:58:38;931653.00;3.11;1611.78;30189.00;0.10;52.91;;;;;10.50;1.00;;;;;;2288398;60;1051;-87
2021/01/20 18:01:04;764125.00;2.55;1318.63;0.00;0.00;0.62;;;;;10.40;1.00;;;;;;2288323;60;1988;-87
2021/01/20 18:03:31;711558.00;2.37;1227.29;0.00;0.00;0.62;;;;;10.30;1.00;;;;;;2288294;60;921;-87
2021/01/20 18:05:57;764175.00;2.55;1318.71;0.00;0.00;0.62;;;;;10.10;1.00;;;;;;2288194;60;1791;-86
2021/01/20 18:08:24;954550.00;3.18;1652.14;12229.00;0.04;21.81;;;;;10.20;1.00;;;;;;2288242;60;921;-86
2021/01/20 18:10:51;997102.00;3.32;1727.34;9842.00;0.03;17.68;;;;;10.00;1.00;;;;;;2288213;60;1287;-87
2021/01/20 18:13:17;773108.00;2.58;1334.26;0.00;0.00;0.62;;;;;10.00;1.00;;;;;;2288303;60;1092;-87
2021/01/20 18:15:44;776961.00;2.59;1340.97;0.00;0.00;0.62;;;;;9.90;1.00;;;;;;2288259;60;1094;-87
2021/01/20 18:18:11;688419.00;2.29;1187.16;17700.00;0.06;31.29;;;;;9.90;1.00;;;;;;2288274;60;1089;-86
2021/01/20 18:20:37;801522.00;2.67;1383.78;0.00;0.00;0.62;;;;;9.90;1.00;;;;;;2288172;60;1989;-88
2021/01/20 18:23:04;931937.00;3.11;1612.28;46711.00;0.16;81.50;;;;;10.10;1.00;;;;;;2288272;60;1093;-87
2021/01/20 18:25:31;745552.00;2.49;1286.32;5655.00;0.02;10.42;;;;;10.00;1.00;;;;;;2288193;60;1644;-86
2021/01/20 18:27:57;674870.00;2.25;1163.69;0.00;0.00;0.62;;;;;9.90;1.00;;;;;;2288327;60;1157;-87
2021/01/20 18:30:25;784458.00;2.61;1354.03;0.00;0.00;0.62;;;;;10.40;1.00;;;;;;2288289;60;1346;-87
2021/01/20 18:32:51;845408.00;2.82;1460.43;37755.00;0.13;66.00;;;;;10.50;1.00;;;;;;2288320;60;1116;-87
2021/01/20 18:35:18;593807.00;1.98;1023.53;0.00;0.00;0.62;;;;;10.50;1.00;;;;;;2288278;60;1141;-85
2021/01/20 18:37:44;632328.00;2.11;1090.07;0.00;0.00;0.62;;;;;10.30;1.00;;;;;;2288255;60;1077;-85
2021/01/20 18:40:11;615574.00;2.05;1061.12;0.00;0.00;0.62;;;;;10.40;1.00;;;;;;2288199;60;1919;-86
2021/01/20 18:42:39;803061.00;2.68;1386.46;0.00;0.00;0.62;;;;;10.30;1.00;;;;;;2288233;60;1310;-85
2021/01/20 18:45:06;583277.00;1.94;1005.35;0.00;0.00;0.62;;;;;10.40;1.00;;;;;;2288303;60;1157;-85
2021/01/20 18:47:33;608563.00;2.03;1049.01;0.00;0.00;0.62;;;;;10.80;1.00;;;;;;2288658;60;1141;-86
2021/01/20 18:49:59;658274.00;2.19;1134.95;0.00;0.00;0.62;;;;;11.00;1.00;;;;;;2288959;60;1151;-86
2021/01/20 18:52:25;797652.00;2.66;1377.03;0.00;0.00;0.62;;;;;11.10;1.00;;;;;;2288922;60;1750;-86
2021/01/20 18:54:52;601709.00;2.01;1037.17;19831.00;0.07;34.98;;;;;10.80;1.00;;;;;;2289034;60;1016;-87
2021/01/20 18:57:18;647812.00;2.16;1116.85;0.00;0.00;0.62;;;;;10.80;1.00;;;;;;2289018;60;1021;-87
2021/01/20 18:59:46;696741.00;2.32;1201.59;0.00;0.00;0.62;;;;;10.70;1.00;;;;;;2289003;60;1992;-87
2021/01/20 19:02:12;689881.00;2.30;1189.70;0.00;0.00;0.62;;;;;10.60;1.00;;;;;;2288938;60;1402;-87
2021/01/20 19:04:38;947569.00;3.16;1639.82;20152.00;0.07;35.53;;;;;10.80;1.00;;;;;;2288949;60;1133;-86
2021/01/20 19:07:05;587533.00;1.96;1012.70;17296.00;0.06;30.59;;;;;10.90;1.00;;;;;;2288938;60;1057;-84
2021/01/20 19:09:32;117258680.00;390.86;65307368.00;22179.00;0.07;39.04;;;;;10.40;1.00;;;;;;2288921;60;1014;-85
2021/01/20 19:11:59;691920.00;2.31;1193.23;0.00;0.00;0.62;;;;;10.20;1.00;;;;;;2288940;60;1290;-86
2021/01/20 19:14:25;615882.00;2.05;1061.65;0.00;0.00;0.62;;;;;10.50;1.00;;;;;;2288897;60;1083;-86
2021/01/20 19:16:53;764047.00;2.55;1318.49;0.00;0.00;0.62;;;;;10.80;1.00;;;;;;2288906;60;1008;-87
2021/01/20 19:19:19;879514.00;2.93;1520.17;26908.00;0.09;47.23;;;;;10.90;1.00;;;;;;2288893;60;1129;-87
2021/01/20 19:21:46;726412.00;2.42;1253.07;0.00;0.00;0.62;;;;;11.20;1.00;;;;;;2288631;60;2005;-86
2021/01/20 19:24:12;730954.00;2.44;1260.96;0.00;0.00;0.62;;;;;11.00;1.00;;;;;;2288884;60;1141;-88
2021/01/20 19:26:40;629763.00;2.10;1085.64;0.00;0.00;0.62;;;;;10.60;1.00;;;;;;2288842;60;1725;-89
2021/01/20 19:29:09;619557.00;2.07;1068.00;0.00;0.00;0.62;;;;;10.60;1.00;;;;;;2288865;60;1052;-88
2021/01/20 19:31:36;583076.00;1.94;1005.01;0.00;0.00;0.62;;;;;11.00;1.00;;;;;;2288864;60;1300;-88
2021/01/20 19:34:04;412292.00;1.37;710.94;0.00;0.00;0.62;;;;;11.50;1.00;;;;;;2288924;60;1047;-88
2021/01/20 19:36:32;398150.00;1.33;686.62;0.00;0.00;0.62;;;;;11.90;1.00;;;;;;2288860;60;1746;-88
2021/01/20 19:38:58;466121.00;1.55;803.52;0.00;0.00;0.62;;;;;12.00;1.00;;;;;;2288869;60;1159;-88
2021/01/20 19:41:25;454392.00;1.51;783.34;0.00;0.00;0.62;;;;;12.30;1.00;;;;;;2288706;60;2007;-90
2021/01/20 19:43:51;400071.00;1.33;689.93;0.00;0.00;0.62;;;;;12.40;1.00;;;;;;2288888;60;989;-88
2021/01/20 19:46:18;500004.00;1.67;861.83;0.00;0.00;0.62;;;;;12.60;1.00;;;;;;2288845;60;1083;-88
2021/01/20 19:48:45;460598.00;1.54;794.01;0.00;0.00;0.62;;;;;12.80;1.00;;;;;;2288800;60;1137;-89
2021/01/20 19:51:15;615826.00;2.05;1061.55;0.00;0.00;0.62;;;;;12.50;1.00;;;;;;2288755;60;1392;-89
2021/01/20 19:53:42;465188.00;1.55;801.91;0.00;0.00;0.62;;;;;12.30;1.00;;;;;;2288850;60;1136;-89
2021/01/20 19:56:09;547148.00;1.82;943.04;0.00;0.00;0.62;;;;;12.40;1.00;;;;;;2288763;60;1042;-89
2021/01/20 19:58:35;519859.00;1.73;896.02;0.00;0.00;0.62;;;;;12.10;1.00;;;;;;2288774;60;919;-90
2021/01/20 20:01:02;491885.00;1.64;847.85;0.00;0.00;0.62;;;;;12.10;1.00;;;;;;2288753;60;1917;-89
2021/01/20 20:03:28;507873.00;1.69;875.38;0.00;0.00;0.62;;;;;12.00;1.00;;;;;;2288809;60;980;-89
2021/01/20 20:05:55;547630.00;1.83;943.87;0.00;0.00;0.62;;;;;11.80;1.00;;;;;;2288824;60;907;-89
2021/01/20 20:08:22;648824.00;2.16;1118.60;14733.00;0.05;26.15;;;;;11.20;1.00;;;;;;2288327;60;1050;-89
2021/01/20 20:10:50;619305.00;2.06;1067.57;28828.00;0.10;50.55;;;;;11.60;1.00;;;;;;2288580;60;1651;-89
2021/01/20 20:13:16;516043.00;1.72;889.45;0.00;0.00;0.62;;;;;11.80;1.00;;;;;;2288803;60;915;-88
2021/01/20 20:15:43;519663.00;1.73;895.68;0.00;0.00;0.62;;;;;12.20;1.00;;;;;;2288818;60;919;-89
2021/01/20 20:18:10;708526.00;2.36;1222.03;0.00;0.00;0.62;;;;;12.30;1.00;;;;;;2288800;60;1014;-89
2021/01/20 20:20:37;117411032.00;391.37;65562484.00;0.00;0.00;0.62;;;;;11.70;1.00;;;;;;2288730;60;1990;-89
2021/01/20 20:23:04;563367.00;1.88;971.01;0.00;0.00;0.62;;;;;11.80;1.00;;;;;;2288780;60;1052;-87
2021/01/20 20:25:31;549684.00;1.83;947.41;0.00;0.00;0.62;;;;;12.10;1.00;;;;;;2288757;60;1119;-90
2021/01/20 20:27:58;502956.00;1.68;866.91;0.00;0.00;0.62;;;;;12.00;1.00;;;;;;2288705;60;1141;-88
2021/01/20 20:30:24;763185.00;2.54;1316.99;0.00;0.00;0.62;;;;;12.00;1.00;;;;;;2288735;60;1381;-89
2021/01/20 20:32:51;575537.00;1.92;992.00;0.00;0.00;0.62;;;;;12.30;1.00;;;;;;2288709;60;1071;-89
2021/01/20 20:35:17;584925.00;1.95;1008.20;0.00;0.00;0.62;;;;;12.20;1.00;;;;;;2288722;60;1074;-90
2021/01/20 20:37:44;573300.00;1.91;988.14;0.00;0.00;0.62;;;;;12.30;1.00;;;;;;2288732;60;1009;-89
2021/01/20 20:40:11;636044.00;2.12;1096.50;10616.00;0.04;19.02;;;;;12.10;1.00;;;;;;2288637;60;1922;-89
2021/01/20 20:45:08;878059.00;2.93;1517.62;0.00;0.00;0.62;;;;;11.90;1.00;;;;;;2291059;60;1270;-89
2021/01/20 21:09:56;735897.00;2.45;1269.55;0.00;0.00;0.62;;;;;12.60;1.00;;;;;;2286781;61;974;-91
2021/01/20 22:02:22;844248.00;2.81;1458.40;18681.00;0.06;32.99;;;;;12.30;1.00;;;;;;2507465;55;2411;31
2021/01/20 22:19:47;785320.00;2.62;1355.53;24837.00;0.08;43.65;;;;;12.40;1.00;;;;;;2277846;61;1932;-91
2021/01/20 23:14:11;782829.00;2.61;1351.19;0.00;0.00;0.62;;;;;10.50;1.00;;;;;;2279282;61;1047;-91
2021/01/20 23:26:44;646755.00;2.16;1115.02;0.00;0.00;0.62;;;;;10.60;1.00;;;;;;2274300;61;1199;-88
2021/01/20 23:29:12;484551.00;1.62;835.23;0.00;0.00;0.62;;;;;10.80;1.00;;;;;;2262358;61;1023;-89
2021/01/20 23:31:38;529786.00;1.77;913.12;0.00;0.00;0.62;;;;;10.90;1.00;;;;;;2265658;61;1302;-87
2021/01/20 23:49:01;656727.00;2.19;1132.28;0.00;0.00;0.62;;;;;11.10;1.00;;;;;;2271498;61;989;-94
